createdAt,value
2018-09-23T00:00:52.653Z,61.97
2018-09-23T00:03:21.518Z,62.07
2018-09-23T00:05:51.804Z,61.90
2018-09-23T00:08:20.642Z,62.18
2018-09-23T00:10:49.498Z,61.90
2018-09-23T00:13:18.363Z,62.10
2018-09-23T00:15:47.284Z,62.10
2018-09-23T00:18:16.176Z,61.84
2018-09-23T00:20:44.932Z,62.03
2018-09-23T00:23:13.770Z,61.71
2018-09-23T00:25:42.610Z,62.07
2018-09-23T00:28:11.481Z,61.92
2018-09-23T00:30:41.200Z,61.51
2018-09-23T00:33:10.222Z,61.72
2018-09-23T00:35:39.036Z,61.54
2018-09-23T00:38:08.010Z,61.60
2018-09-23T00:40:36.930Z,61.37
2018-09-23T00:43:06.179Z,61.68
2018-09-23T00:45:34.999Z,61.48
2018-09-23T00:48:03.842Z,61.40
2018-09-23T00:50:32.665Z,61.38
2018-09-23T00:53:01.551Z,60.90
2018-09-23T00:55:30.361Z,61.27
2018-09-23T00:57:59.186Z,61.33
2018-09-23T01:00:28.075Z,61.75
2018-09-23T01:02:58.630Z,61.41
2018-09-23T01:05:27.493Z,61.40
2018-09-23T01:07:56.284Z,61.55
2018-09-23T01:10:25.220Z,61.64
2018-09-23T01:12:53.990Z,61.23
2018-09-23T01:15:22.942Z,61.18
2018-09-23T01:17:51.775Z,61.54
2018-09-23T01:20:20.739Z,61.06
2018-09-23T01:22:50.282Z,61.56
2018-09-23T01:25:19.334Z,61.81
2018-09-23T01:27:48.104Z,61.47
2018-09-23T01:30:16.995Z,61.54
2018-09-23T01:32:46.161Z,61.68
2018-09-23T01:35:15.095Z,61.68
2018-09-23T01:37:44.042Z,61.56
2018-09-23T01:40:12.816Z,61.86
2018-09-23T01:42:41.719Z,61.57
2018-09-23T01:45:11.056Z,61.50
2018-09-23T01:47:39.860Z,61.63
2018-09-23T01:50:09.044Z,61.56
2018-09-23T01:52:38.040Z,61.58
2018-09-23T01:55:06.870Z,61.60
2018-09-23T01:57:35.795Z,61.66
2018-09-23T02:00:04.920Z,61.56
2018-09-23T02:02:34.252Z,61.52
2018-09-23T02:05:03.082Z,61.53
2018-09-23T02:07:31.852Z,61.29
2018-09-23T02:10:00.706Z,61.36
2018-09-23T02:12:29.480Z,61.39
2018-09-23T02:15:01.497Z,61.56
2018-09-23T02:17:30.329Z,60.96
2018-09-23T02:19:59.606Z,61.24
2018-09-23T02:22:28.724Z,61.38
2018-09-23T02:24:57.583Z,61.27
2018-09-23T02:27:26.444Z,61.10
2018-09-23T02:29:56.139Z,61.08
2018-09-23T02:32:24.920Z,61.22
2018-09-23T02:34:54.128Z,61.25
2018-09-23T02:37:22.902Z,61.16
2018-09-23T02:39:51.851Z,61.15
2018-09-23T02:42:20.635Z,61.25
2018-09-23T02:44:49.427Z,61.40
2018-09-23T02:47:18.279Z,61.69
2018-09-23T02:49:47.107Z,61.64
2018-09-23T02:52:16.066Z,61.68
2018-09-23T02:54:44.994Z,61.74
2018-09-23T02:57:14.014Z,62.02
2018-09-23T02:59:42.805Z,61.93
2018-09-23T03:02:11.675Z,61.72
2018-09-23T03:04:40.582Z,62.00
2018-09-23T03:07:09.462Z,61.74
2018-09-23T03:09:38.348Z,61.76
2018-09-23T03:12:07.294Z,61.57
2018-09-23T03:14:36.131Z,61.36
2018-09-23T03:17:05.009Z,61.61
2018-09-23T03:19:33.903Z,61.44
2018-09-23T03:22:02.716Z,61.28
2018-09-23T03:24:31.614Z,61.35
2018-09-23T03:27:00.391Z,61.30
2018-09-23T03:29:29.271Z,61.25
2018-09-23T03:31:58.088Z,61.30
2018-09-23T03:34:27.739Z,61.18
2018-09-23T03:36:57.190Z,61.38
2018-09-23T03:39:26.044Z,61.16
2018-09-23T03:41:54.826Z,61.38
2018-09-23T03:44:23.663Z,61.40
2018-09-23T03:46:52.528Z,61.64
2018-09-23T03:49:21.368Z,61.05
2018-09-23T03:51:50.217Z,61.54
2018-09-23T03:54:19.161Z,61.41
2018-09-23T03:56:48.054Z,61.86
2018-09-23T03:59:16.973Z,61.77
2018-09-23T04:01:45.783Z,62.15
2018-09-23T04:04:14.510Z,62.50
2018-09-23T04:06:43.427Z,62.36
2018-09-23T04:09:12.219Z,62.40
2018-09-23T04:11:41.226Z,61.85
2018-09-23T04:14:10.060Z,62.04
2018-09-23T04:16:38.903Z,61.88
2018-09-23T04:19:07.759Z,62.33
2018-09-23T04:21:36.582Z,62.04
2018-09-23T04:24:05.339Z,62.27
2018-09-23T04:26:34.224Z,61.75
2018-09-23T04:29:02.999Z,61.72
2018-09-23T04:31:31.875Z,61.68
2018-09-23T04:34:00.663Z,61.10
2018-09-23T04:36:29.539Z,61.24
2018-09-23T04:38:58.343Z,61.16
2018-09-23T04:41:27.146Z,61.07
2018-09-23T04:43:55.998Z,61.47
2018-09-23T04:46:25.216Z,61.41
2018-09-23T04:48:54.094Z,61.21
2018-09-23T04:51:22.987Z,61.91
2018-09-23T04:53:53.236Z,61.70
2018-09-23T04:56:22.178Z,61.42
2018-09-23T04:58:51.108Z,61.91
2018-09-23T05:01:19.916Z,61.79
2018-09-23T05:03:48.790Z,62.42
2018-09-23T05:06:17.685Z,62.53
2018-09-23T05:08:47.107Z,62.48
2018-09-23T05:11:15.874Z,62.52
2018-09-23T05:13:45.281Z,62.75
2018-09-23T05:16:14.508Z,62.80
2018-09-23T05:18:47.127Z,62.66
2018-09-23T05:21:16.450Z,62.85
2018-09-23T05:23:45.548Z,62.28
2018-09-23T05:26:14.406Z,62.57
2018-09-23T05:28:43.228Z,62.42
2018-09-23T05:31:14.100Z,62.11
2018-09-23T05:33:43.267Z,62.43
2018-09-23T05:36:12.493Z,62.32
2018-09-23T05:38:41.510Z,62.63
2018-09-23T05:41:11.621Z,62.73
2018-09-23T05:43:40.503Z,63.04
2018-09-23T05:46:09.364Z,63.13
2018-09-23T05:48:38.258Z,63.11
2018-09-23T05:51:07.085Z,64.03
2018-09-23T05:53:36.001Z,64.02
2018-09-23T05:56:04.919Z,63.42
2018-09-23T05:58:33.730Z,64.19
2018-09-23T06:01:02.752Z,64.10
2018-09-23T06:03:31.696Z,63.93
2018-09-23T06:06:00.624Z,64.15
2018-09-23T06:08:29.384Z,64.60
2018-09-23T06:10:59.972Z,64.22
2018-09-23T06:13:29.257Z,64.68
2018-09-23T06:15:58.219Z,64.46
2018-09-23T06:18:27.727Z,64.62
2018-09-23T06:20:57.736Z,64.69
2018-09-23T06:23:27.151Z,64.89
2018-09-23T06:25:56.343Z,64.62
2018-09-23T06:28:25.159Z,64.65
2018-09-23T06:30:54.097Z,65.01
2018-09-23T06:33:23.170Z,64.96
2018-09-23T06:35:54.272Z,65.00
2018-09-23T06:38:23.241Z,64.82
2018-09-23T06:40:52.319Z,64.94
2018-09-23T06:43:21.259Z,64.60
2018-09-23T06:45:50.104Z,65.15
2018-09-23T06:48:22.924Z,65.14
2018-09-23T06:50:54.306Z,65.25
2018-09-23T06:53:23.147Z,65.46
2018-09-23T06:55:52.032Z,66.45
2018-09-23T06:58:21.329Z,66.01
2018-09-23T07:00:50.301Z,65.95
2018-09-23T07:03:19.165Z,66.50
2018-09-23T07:05:47.994Z,66.46
2018-09-23T07:08:17.005Z,66.52
2018-09-23T07:10:45.932Z,66.31
2018-09-23T07:13:14.957Z,66.26
2018-09-23T07:15:43.860Z,66.77
2018-09-23T07:18:12.750Z,66.07
2018-09-23T07:20:41.954Z,65.51
2018-09-23T07:23:10.951Z,66.63
2018-09-23T07:25:39.868Z,67.40
2018-09-23T07:28:16.322Z,67.17
2018-09-23T07:30:45.975Z,67.18
2018-09-23T07:33:15.452Z,67.28
2018-09-23T07:35:44.251Z,67.61
2018-09-23T07:38:13.187Z,67.33
2018-09-23T07:40:42.072Z,67.21
2018-09-23T07:43:11.039Z,67.41
2018-09-23T07:45:40.061Z,67.41
2018-09-23T07:48:09.167Z,67.27
2018-09-23T07:50:38.086Z,66.73
2018-09-23T07:53:07.319Z,67.81
2018-09-23T07:55:36.276Z,67.88
2018-09-23T07:58:06.045Z,69.42
2018-09-23T08:00:34.952Z,68.73
2018-09-23T08:03:03.764Z,69.72
2018-09-23T08:05:32.686Z,69.60
2018-09-23T08:08:01.752Z,69.83
2018-09-23T08:10:30.670Z,70.04
2018-09-23T08:12:59.717Z,69.95
2018-09-23T08:15:28.592Z,69.93
2018-09-23T08:17:57.524Z,70.17
2018-09-23T08:20:26.545Z,69.90
2018-09-23T08:22:55.372Z,70.50
2018-09-23T08:25:24.234Z,68.86
2018-09-23T08:27:53.309Z,69.58
2018-09-23T08:30:22.333Z,69.24
2018-09-23T08:32:51.342Z,68.02
2018-09-23T08:35:20.537Z,67.46
2018-09-23T08:37:49.493Z,67.99
2018-09-23T08:40:18.313Z,66.98
2018-09-23T08:42:47.295Z,67.57
2018-09-23T08:45:16.863Z,67.65
2018-09-23T08:47:45.969Z,68.08
2018-09-23T08:50:14.981Z,67.61
2018-09-23T08:52:43.884Z,65.56
2018-09-23T08:55:12.693Z,66.05
2018-09-23T08:57:41.690Z,66.67
2018-09-23T09:00:10.584Z,67.90
2018-09-23T09:02:39.646Z,66.18
2018-09-23T09:05:08.591Z,65.08
2018-09-23T09:07:37.503Z,65.72
2018-09-23T09:10:06.633Z,66.09
2018-09-23T09:12:35.576Z,66.28
2018-09-23T09:15:04.655Z,66.83
2018-09-23T09:17:33.594Z,67.16
2018-09-23T09:20:02.820Z,68.19
2018-09-23T09:22:31.746Z,67.14
2018-09-23T09:25:01.149Z,66.24
2018-09-23T09:27:30.138Z,67.57
2018-09-23T09:29:59.162Z,68.29
2018-09-23T09:32:28.005Z,69.73
2018-09-23T09:34:56.991Z,69.16
2018-09-23T09:37:25.799Z,68.91
2018-09-23T09:39:54.716Z,69.83
2018-09-23T09:42:23.754Z,69.56
2018-09-23T09:44:55.060Z,69.83
2018-09-23T09:47:24.098Z,68.52
2018-09-23T09:49:52.993Z,69.13
2018-09-23T09:52:21.977Z,69.30
2018-09-23T09:54:51.142Z,70.42
2018-09-23T09:57:20.296Z,69.79
2018-09-23T09:59:49.389Z,70.34
2018-09-23T10:02:22.068Z,68.71
2018-09-23T10:04:51.443Z,69.07
2018-09-23T10:07:20.446Z,69.57
2018-09-23T10:09:49.668Z,67.41
2018-09-23T10:12:18.943Z,68.70
2018-09-23T10:14:48.202Z,68.94
2018-09-23T10:17:17.981Z,68.71
2018-09-23T10:19:47.245Z,68.61
2018-09-23T10:22:16.215Z,68.54
2018-09-23T10:24:45.158Z,68.43
2018-09-23T10:27:14.842Z,68.30
2018-09-23T10:29:44.124Z,67.68
2018-09-23T10:32:13.362Z,66.61
2018-09-23T10:34:43.527Z,66.36
2018-09-23T10:37:12.743Z,67.02
2018-09-23T10:39:41.701Z,66.82
2018-09-23T10:42:12.548Z,67.01
2018-09-23T10:44:43.508Z,67.09
2018-09-23T10:47:12.558Z,67.87
2018-09-23T10:49:41.907Z,68.10
2018-09-23T10:52:11.353Z,68.77
2018-09-23T10:54:40.309Z,69.37
2018-09-23T10:57:09.356Z,69.88
2018-09-23T10:59:40.711Z,70.02
2018-09-23T11:02:10.689Z,69.81
2018-09-23T11:04:39.880Z,70.31
2018-09-23T11:07:09.163Z,70.56
2018-09-23T11:09:38.584Z,70.54
2018-09-23T11:12:07.629Z,69.86
2018-09-23T11:14:38.544Z,70.14
2018-09-23T11:17:16.961Z,70.06
2018-09-23T11:19:47.763Z,70.68
2018-09-23T11:22:17.039Z,70.76
2018-09-23T11:24:45.988Z,71.16
2018-09-23T11:27:15.043Z,71.96
2018-09-23T11:29:44.090Z,72.55
2018-09-23T11:32:14.028Z,72.05
2018-09-23T11:34:43.196Z,71.89
2018-09-23T11:37:14.437Z,72.59
2018-09-23T11:39:43.615Z,72.28
2018-09-23T11:42:12.640Z,72.56
2018-09-23T11:44:43.100Z,72.87
2018-09-23T11:47:18.206Z,72.57
2018-09-23T11:49:47.220Z,72.60
2018-09-23T11:52:16.367Z,72.45
2018-09-23T11:54:45.460Z,71.49
2018-09-23T11:57:14.384Z,71.93
2018-09-23T11:59:43.821Z,71.47
2018-09-23T12:02:12.964Z,71.50
2018-09-23T12:04:42.002Z,71.89
2018-09-23T12:07:10.908Z,71.36
2018-09-23T12:09:39.920Z,72.56
2018-09-23T12:12:10.832Z,72.91
2018-09-23T12:14:42.123Z,73.24
2018-09-23T12:17:10.909Z,73.39
2018-09-23T12:19:39.929Z,74.16
2018-09-23T12:22:08.894Z,73.70
2018-09-23T12:24:38.051Z,74.07
2018-09-23T12:27:07.002Z,74.75
2018-09-23T12:29:36.279Z,74.96
2018-09-23T12:32:05.749Z,74.37
2018-09-23T12:34:37.578Z,74.39
2018-09-23T12:37:12.112Z,74.83
2018-09-23T12:39:41.935Z,74.47
2018-09-23T12:42:10.853Z,74.92
2018-09-23T12:44:41.938Z,74.70
2018-09-23T12:47:16.861Z,75.08
2018-09-23T12:49:45.959Z,75.12
2018-09-23T12:52:15.070Z,74.61
2018-09-23T12:54:44.204Z,75.10
2018-09-23T12:57:21.648Z,75.08
2018-09-23T12:59:50.906Z,75.17
2018-09-23T13:02:20.138Z,75.12
2018-09-23T13:04:49.382Z,75.21
2018-09-23T13:07:19.242Z,75.49
2018-09-23T13:09:48.222Z,75.62
2018-09-23T13:12:17.464Z,75.72
2018-09-23T13:14:47.014Z,76.15
2018-09-23T13:17:16.065Z,76.35
2018-09-23T13:19:45.387Z,75.57
2018-09-23T13:22:14.539Z,76.26
2018-09-23T13:24:43.811Z,77.74
2018-09-23T13:27:12.894Z,77.68
2018-09-23T13:29:42.424Z,78.46
2018-09-23T13:32:11.484Z,78.95
2018-09-23T13:34:41.548Z,78.97
2018-09-23T13:37:12.220Z,79.33
2018-09-23T13:39:41.278Z,79.48
2018-09-23T13:42:10.516Z,80.03
2018-09-23T13:44:45.383Z,80.05
2018-09-23T13:47:16.394Z,80.41
2018-09-23T13:49:47.775Z,80.42
2018-09-23T13:52:21.140Z,80.66
2018-09-23T13:54:51.833Z,80.84
2018-09-23T13:57:22.775Z,80.56
2018-09-23T13:59:53.672Z,80.38
2018-09-23T14:02:24.324Z,80.19
2018-09-23T14:04:54.199Z,79.60
2018-09-23T14:07:24.852Z,79.66
2018-09-23T14:09:54.714Z,80.10
2018-09-23T14:12:32.073Z,80.68
2018-09-23T14:15:04.519Z,80.50
2018-09-23T14:17:34.144Z,80.46
2018-09-23T14:20:03.110Z,80.53
2018-09-23T14:22:32.108Z,80.15
2018-09-23T14:25:01.030Z,80.25
2018-09-23T14:27:30.062Z,80.20
2018-09-23T14:29:59.084Z,80.40
2018-09-23T14:32:28.877Z,80.52
2018-09-23T14:34:57.830Z,79.74
2018-09-23T14:37:27.321Z,79.98
2018-09-23T14:39:56.873Z,79.67
2018-09-23T14:42:26.386Z,79.82
2018-09-23T14:44:55.919Z,79.35
2018-09-23T14:47:25.261Z,79.57
2018-09-23T14:49:54.357Z,79.46
2018-09-23T14:52:23.348Z,79.66
2018-09-23T14:54:52.325Z,79.65
2018-09-23T14:57:21.343Z,79.48
2018-09-23T14:59:54.192Z,79.41
2018-09-23T15:02:19.353Z,79.27
2018-09-23T15:04:48.526Z,79.42
2018-09-23T15:07:36.378Z,79.27
2018-09-23T15:10:08.119Z,79.40
2018-09-23T15:12:37.704Z,79.38
2018-09-23T15:15:06.595Z,79.52
2018-09-23T15:17:36.116Z,79.57
2018-09-23T15:20:05.190Z,79.97
2018-09-23T15:22:34.351Z,80.05
2018-09-23T15:25:04.846Z,79.76
2018-09-23T15:27:34.740Z,79.85
2018-09-23T15:30:05.841Z,80.43
2018-09-23T15:32:34.959Z,80.73
2018-09-23T15:35:04.249Z,80.55
2018-09-23T15:37:33.225Z,81.17
2018-09-23T15:40:03.208Z,80.96
2018-09-23T15:42:32.121Z,81.49
2018-09-23T15:45:01.298Z,81.47
2018-09-23T15:47:30.532Z,81.38
2018-09-23T15:49:59.498Z,81.42
2018-09-23T15:52:28.588Z,81.39
2018-09-23T15:54:57.626Z,81.30
2018-09-23T15:57:26.876Z,81.30
2018-09-23T15:59:56.212Z,81.37
2018-09-23T16:02:26.185Z,81.33
2018-09-23T16:04:55.399Z,81.29
2018-09-23T16:07:24.652Z,80.87
2018-09-23T16:09:54.000Z,81.05
2018-09-23T16:12:22.884Z,81.24
2018-09-23T16:14:52.732Z,81.28
2018-09-23T16:17:22.218Z,81.14
2018-09-23T16:19:51.544Z,81.01
2018-09-23T16:22:20.608Z,80.86
2018-09-23T16:24:53.686Z,80.71
2018-09-23T16:27:24.682Z,81.12
2018-09-23T16:29:55.008Z,80.75
2018-09-23T16:32:24.181Z,80.94
2018-09-23T16:34:54.362Z,81.14
2018-09-23T16:37:23.948Z,80.55
2018-09-23T16:39:52.854Z,80.31
2018-09-23T16:42:22.306Z,79.18
2018-09-23T16:44:53.201Z,79.96
2018-09-23T16:47:22.691Z,79.38
2018-09-23T16:49:51.739Z,79.75
2018-09-23T16:52:20.681Z,80.15
2018-09-23T16:54:49.939Z,80.16
2018-09-23T16:57:18.907Z,80.61
2018-09-23T16:59:48.613Z,80.14
2018-09-23T17:02:17.743Z,80.41
2018-09-23T17:04:46.779Z,80.54
2018-09-23T17:07:16.528Z,80.36
2018-09-23T17:09:45.641Z,80.06
2018-09-23T17:12:14.948Z,79.84
2018-09-23T17:14:45.099Z,79.77
2018-09-23T17:17:14.988Z,80.07
2018-09-23T17:19:44.041Z,80.01
2018-09-23T17:22:14.331Z,80.27
2018-09-23T17:24:43.171Z,80.39
2018-09-23T17:27:12.762Z,80.23
2018-09-23T17:29:42.929Z,80.60
2018-09-23T17:32:11.958Z,80.26
2018-09-23T17:34:41.892Z,80.04
2018-09-23T17:41:36.713Z,80.25
2018-09-23T17:44:08.903Z,80.46
2018-09-23T17:46:37.888Z,80.27
2018-09-23T17:49:07.197Z,80.83
2018-09-23T17:51:36.279Z,80.57
2018-09-23T17:54:05.330Z,80.93
2018-09-23T17:56:34.011Z,81.12
2018-09-23T17:59:02.664Z,81.46
2018-09-23T18:01:31.196Z,81.64
2018-09-23T18:04:00.840Z,81.36
2018-09-23T18:06:29.608Z,81.35
2018-09-23T18:08:58.239Z,81.47
2018-09-23T18:11:26.737Z,80.84
2018-09-23T18:13:56.245Z,81.35
2018-09-23T18:16:25.149Z,80.05
2018-09-23T18:18:54.098Z,80.71
2018-09-23T18:21:22.858Z,80.31
2018-09-23T18:23:51.565Z,81.04
2018-09-23T18:26:22.110Z,80.09
2018-09-23T18:28:53.485Z,79.50
2018-09-23T18:31:23.016Z,79.76
2018-09-23T18:33:52.052Z,80.33
2018-09-23T18:36:22.137Z,80.90
2018-09-23T18:38:51.180Z,81.09
2018-09-23T18:41:20.634Z,81.05
2018-09-23T18:43:49.790Z,80.74
2018-09-23T18:46:18.776Z,80.85
2018-09-23T18:48:47.582Z,80.81
2018-09-23T18:51:16.611Z,80.87
2018-09-23T18:53:50.671Z,80.91
2018-09-23T18:56:19.899Z,80.67
2018-09-23T18:58:57.846Z,80.80
2018-09-23T19:01:30.869Z,80.72
2018-09-23T19:04:02.421Z,81.14
2018-09-23T19:06:34.958Z,80.54
2018-09-23T19:09:04.855Z,80.65
2018-09-23T19:11:35.159Z,80.37
2018-09-23T19:14:06.795Z,80.19
2018-09-23T19:16:36.551Z,80.23
2018-09-23T19:19:07.691Z,80.57
2018-09-23T19:21:36.659Z,80.25
2018-09-23T19:24:07.743Z,80.11
2018-09-23T19:26:38.309Z,80.09
2018-09-23T19:29:08.535Z,79.13
2018-09-23T19:31:40.342Z,79.68
2018-09-23T19:34:09.491Z,79.46
2018-09-23T19:36:39.825Z,80.13
2018-09-23T19:39:09.775Z,79.66
2018-09-23T19:41:45.882Z,79.33
2018-09-23T19:44:15.290Z,79.77
2018-09-23T19:46:45.490Z,79.32
2018-09-23T19:49:15.300Z,78.97
2018-09-23T19:51:49.682Z,79.32
2018-09-23T19:54:19.656Z,78.93
2018-09-23T19:56:51.518Z,79.10
2018-09-23T19:59:23.024Z,78.51
2018-09-23T20:01:52.021Z,78.74
2018-09-23T20:04:21.140Z,78.61
2018-09-23T20:06:50.039Z,78.13
2018-09-23T20:09:19.335Z,77.84
2018-09-23T20:11:49.770Z,78.11
2018-09-23T20:14:20.706Z,77.88
2018-09-23T20:17:16.903Z,77.91
2018-09-23T20:19:47.070Z,78.63
2018-09-23T20:22:17.808Z,79.36
2018-09-23T20:24:52.931Z,78.72
2018-09-23T20:27:23.628Z,78.46
2018-09-23T20:29:53.510Z,77.96
2018-09-23T20:32:22.719Z,78.17
2018-09-23T20:34:52.829Z,78.31
2018-09-23T20:37:29.048Z,78.35
2018-09-23T20:40:07.233Z,78.45
2018-09-23T20:42:36.448Z,77.74
2018-09-23T20:45:05.767Z,78.99
2018-09-23T20:47:35.350Z,78.32
2018-09-23T20:50:05.973Z,78.14
2018-09-23T20:52:35.440Z,77.99
2018-09-23T20:55:04.453Z,77.94
2018-09-23T20:57:34.903Z,77.83
2018-09-23T21:00:04.203Z,78.03
2018-09-23T21:02:33.335Z,77.92
2018-09-23T21:05:02.291Z,78.12
2018-09-23T21:07:31.284Z,78.30
2018-09-23T21:10:00.185Z,78.52
2018-09-23T21:12:29.440Z,79.08
2018-09-23T21:14:59.506Z,79.58
2018-09-23T21:17:28.515Z,79.45
2018-09-23T21:20:00.141Z,79.40
2018-09-23T21:22:29.227Z,79.60
2018-09-23T21:24:58.090Z,79.68
2018-09-23T21:27:28.160Z,79.68
2018-09-23T21:29:57.668Z,79.59
2018-09-23T21:32:30.563Z,79.20
2018-09-23T21:35:01.067Z,79.41
2018-09-23T21:37:30.201Z,79.69
2018-09-23T21:40:01.022Z,79.32
2018-09-23T21:42:31.537Z,79.44
2018-09-23T21:45:05.474Z,79.22
2018-09-23T21:47:34.743Z,79.21
2018-09-23T21:50:03.582Z,79.07
2018-09-23T21:52:33.303Z,78.98
2018-09-23T21:55:02.680Z,78.71
2018-09-23T21:57:42.665Z,79.14
2018-09-23T22:00:12.881Z,78.82
2018-09-23T22:02:41.858Z,78.99
2018-09-23T22:05:10.860Z,78.76
2018-09-23T22:07:39.670Z,78.94
2018-09-23T22:10:09.849Z,78.54
2018-09-23T22:12:39.488Z,78.36
2018-09-23T22:15:12.640Z,77.94
2018-09-23T22:17:41.563Z,78.37
2018-09-23T22:20:11.396Z,78.89
2018-09-23T22:22:40.336Z,78.47
2018-09-23T22:25:09.239Z,78.19
2018-09-23T22:27:38.253Z,78.60
2018-09-23T22:30:07.637Z,77.96
2018-09-23T22:32:37.707Z,78.12
2018-09-23T22:35:06.979Z,78.48
2018-09-23T22:37:36.128Z,77.98
2018-09-23T22:40:06.365Z,78.23
2018-09-23T22:42:35.492Z,78.40
2018-09-23T22:45:05.038Z,77.78
2018-09-23T22:47:33.995Z,78.33
2018-09-23T22:50:04.156Z,77.72
2018-09-23T22:52:32.991Z,77.91
2018-09-23T22:55:01.903Z,78.05
2018-09-23T22:57:30.794Z,77.89
2018-09-23T22:59:59.719Z,77.92
2018-09-23T23:02:28.586Z,78.18
2018-09-23T23:04:57.306Z,77.19
2018-09-23T23:07:26.179Z,77.33
2018-09-23T23:09:54.963Z,77.25
2018-09-23T23:12:27.611Z,76.90
2018-09-23T23:14:56.418Z,76.71
2018-09-23T23:17:25.255Z,76.88
2018-09-23T23:19:54.064Z,76.79
2018-09-23T23:22:40.824Z,76.07
2018-09-23T23:25:09.602Z,76.29
2018-09-23T23:27:38.361Z,76.32
2018-09-23T23:30:07.670Z,76.33
2018-09-23T23:32:36.497Z,76.69
2018-09-23T23:35:06.325Z,76.50
2018-09-23T23:37:35.079Z,76.29
2018-09-23T23:40:03.935Z,76.44
2018-09-23T23:42:32.773Z,76.02
2018-09-23T23:45:01.570Z,76.21
2018-09-23T23:47:30.370Z,76.04
2018-09-23T23:49:59.164Z,75.97
2018-09-23T23:52:28.014Z,76.74
2018-09-23T23:54:56.846Z,76.71
2018-09-23T23:57:25.602Z,76.37
2018-09-23T23:59:55.183Z,75.95
